This is the latest recevied weather packets stored in our database for station/object HK6RM-17. If no packets are shown the sender has not sent any weather packets the latest 10 day(s).
| Time | Temp. | Humidity | Pressure | Rain* | Wind** | Luminosity | Snow |
|---|---|---|---|---|---|---|---|
| 1777870342 | 11.67° C | 82% | 1018 hPa | 0 mm | - | - | - |
| 1777869742 | 11.11° C | 82% | 1018 hPa | 0 mm | - | - | - |
| 1777869140 | 11.67° C | 82% | 1018 hPa | 0 mm | - | - | - |
| 1777868540 | 11.67° C | 82% | 1018 hPa | 0 mm | - | - | - |
| 1777867940 | 11.11° C | 82% | 1018 hPa | 0 mm | - | - | - |
| 1777867338 | 11.67° C | 82% | 1018 hPa | 0.25 mm | - | - | - |
| 1777866737 | 11.67° C | 82% | 1018 hPa | 0.25 mm | - | - | - |
| 1777866137 | 11.11° C | 84% | 1018 hPa | 0 mm | - | - | - |
| 1777865536 | 11.11° C | 82% | 1018 hPa | 0 mm | - | - | - |
| 1777864937 | 11.11° C | 82% | 1018 hPa | 0 mm | - | - | - |
| 1777864335 | 11.11° C | 82% | 1018 hPa | 0 mm | - | - | - |
| 1777863733 | 11.11° C | 82% | 1018 hPa | 0 mm | - | - | - |
| 1777863132 | 11.11° C | 82% | 1018 hPa | 0 mm | - | - | - |
| 1777862531 | 11.11° C | 83% | 1018 hPa | 0 mm | - | - | - |
| 1777861930 | 11.67° C | 83% | 1018 hPa | 0 mm | - | - | - |
| 1777861329 | 11.67° C | 83% | 1017 hPa | 0 mm | - | - | - |
| 1777860729 | 12.22° C | 83% | 1017 hPa | 0 mm | - | - | - |
| 1777860123 | 12.78° C | 83% | 1017 hPa | 0 mm | - | - | - |
| 1777859521 | 12.78° C | 83% | 1018 hPa | 0 mm | - | - | - |
| 1777858918 | 13.33° C | 83% | 1017 hPa | 0 mm | - | - | - |
| 1777858309 | 14.44° C | 84% | 1017 hPa | 0 mm | - | - | - |
| 1777857708 | 14.44° C | 84% | 1016 hPa | 0 mm | - | - | - |
| 1777857107 | 11.67° C | 79% | 1016 hPa | 0 mm | - | - | - |
| 1777856505 | 11.67° C | 80% | 1016 hPa | 0 mm | - | - | - |
| 1777855904 | 11.67° C | 79% | 1016 hPa | 0 mm | - | - | - |
* Rain latest hour (hover to see other rain measurements)
** Current wind speed in m/s (hover to see current wind gust speed)